St. David's Bench

*Note: All times are displayed in the local standard time of the station location.
**Rain - Equipment is designed to accurately record liquid precipitation; under conditions when precipitation is not in liquid form, the data displayed may not properly reflect rainfall values.

Date Max Temp
(°C)
Min Temp
(°C)
Avg Temp
(°C)
Rain (mm) Avg RH (%)
Mon, Apr 23, 2018 20.5 1.6 11.6 0.0 41.1
Sun, Apr 22, 2018 16.6 -0.7 8.4 0.0 47.1
Sat, Apr 21, 2018 14.2 -3.9 6.0 0.0 51.6
Fri, Apr 20, 2018 8.2 -2.6 2.6 0.0 61.4
Thu, Apr 19, 2018 3.9 0.5 1.9 0.0 70.1
Wed, Apr 18, 2018 4.3 0.5 2.1 0.0 78.4
Tue, Apr 17, 2018 1.8 -0.9 0.4 0.6 78.3
DateTime Avg Temp (°C) Rain (mm) RH (%)
Tue, Apr 24, 2018 18:00 13.0 0.6 80.3
Tue, Apr 24, 2018 17:00 14.2 0.0 69.0
Tue, Apr 24, 2018 16:00 15.3 0.0 55.8
Tue, Apr 24, 2018 15:00 16.4 0.0 49.3
Tue, Apr 24, 2018 14:00 18.8 0.0 34.5
Tue, Apr 24, 2018 13:00 18.6 0.0 36.8
Tue, Apr 24, 2018 12:00 16.5 0.0 39.0
Tue, Apr 24, 2018 11:00 15.1 0.0 49.5
Tue, Apr 24, 2018 10:00 14.4 0.0 56.8
Tue, Apr 24, 2018 09:00 14.0 0.0 55.5
Tue, Apr 24, 2018 08:00 13.0 0.0 56.8
Tue, Apr 24, 2018 07:00 12.2 0.0 60.0
Tue, Apr 24, 2018 06:00 12.3 0.0 58.8
Tue, Apr 24, 2018 05:00 11.8 0.0 59.8
Tue, Apr 24, 2018 04:00 11.6 0.0 58.5
Tue, Apr 24, 2018 03:00 11.6 0.0 57.0
Tue, Apr 24, 2018 02:00 9.2 0.0 61.3
Tue, Apr 24, 2018 01:00 5.3 0.0 75.8
Tue, Apr 24, 2018 00:00 5.5 0.0 74.5
Mon, Apr 23, 2018 23:00 5.9 0.0 72.5
Mon, Apr 23, 2018 22:00 6.7 0.0 69.0
Mon, Apr 23, 2018 21:00 8.7 0.0 62.5
Mon, Apr 23, 2018 20:00 13.2 0.0 45.3
Mon, Apr 23, 2018 19:00 17.1 0.0 36.3
Mon, Apr 23, 2018 18:00 19.3 0.0 30.5
Mon, Apr 23, 2018 17:00 20.2 0.0 26.0
Mon, Apr 23, 2018 16:00 19.6 0.0 25.3
Mon, Apr 23, 2018 15:00 19.1 0.0 24.8
Mon, Apr 23, 2018 14:00 18.1 0.0 28.3
Mon, Apr 23, 2018 13:00 19.5 0.0 23.3
Mon, Apr 23, 2018 12:00 18.7 0.0 20.8
Mon, Apr 23, 2018 11:00 16.7 0.0 23.8
Mon, Apr 23, 2018 10:00 14.3 0.0 23.3
Mon, Apr 23, 2018 09:00 12.3 0.0 25.3
Mon, Apr 23, 2018 08:00 9.4 0.0 30.5
Mon, Apr 23, 2018 07:00 6.2 0.0 40.5
Mon, Apr 23, 2018 06:00 5.1 0.0 45.8
Mon, Apr 23, 2018 05:00 5.2 0.0 46.8
Mon, Apr 23, 2018 04:00 6.2 0.0 44.3
Mon, Apr 23, 2018 03:00 6.0 0.0 43.8
Mon, Apr 23, 2018 02:00 4.4 0.0 52.0
Mon, Apr 23, 2018 01:00 2.0 0.0 72.3
Mon, Apr 23, 2018 00:00 4.2 0.0 60.5
Sun, Apr 22, 2018 23:00 5.1 0.0 58.8
Sun, Apr 22, 2018 22:00 5.9 0.0 58.0
Sun, Apr 22, 2018 21:00 8.7 0.0 48.3
Sun, Apr 22, 2018 20:00 14.7 0.0 23.8
Sun, Apr 22, 2018 19:00 16.3 0.0 19.0


asterix Register now to access more data! asterix